sensor_id;sensor_type;location;lat;lon;timestamp;P1;durP1;ratioP1;P2;durP2;ratioP2
32172;SDS011;18679;45.190;5.722;2023-04-05T00:02:10;3.25;;;2.22;;
32172;SDS011;18679;45.190;5.722;2023-04-05T00:05:13;2.67;;;1.55;;
32172;SDS011;18679;45.190;5.722;2023-04-05T00:08:13;3.28;;;1.98;;
32172;SDS011;18679;45.190;5.722;2023-04-05T00:11:23;6.22;;;2.05;;
32172;SDS011;18679;45.190;5.722;2023-04-05T00:14:28;6.20;;;2.10;;
32172;SDS011;18679;45.190;5.722;2023-04-05T00:17:29;2.17;;;1.52;;
32172;SDS011;18679;45.190;5.722;2023-04-05T00:20:30;5.88;;;1.67;;
32172;SDS011;18679;45.190;5.722;2023-04-05T00:23:32;5.90;;;2.03;;
32172;SDS011;18679;45.190;5.722;2023-04-05T00:26:37;4.07;;;1.50;;
32172;SDS011;18679;45.190;5.722;2023-04-05T00:29:38;3.28;;;1.83;;
32172;SDS011;18679;45.190;5.722;2023-04-05T00:32:39;3.08;;;1.73;;
32172;SDS011;18679;45.190;5.722;2023-04-05T00:35:40;2.38;;;1.70;;
32172;SDS011;18679;45.190;5.722;2023-04-05T00:38:41;3.65;;;1.75;;
32172;SDS011;18679;45.190;5.722;2023-04-05T00:41:43;4.90;;;1.95;;
32172;SDS011;18679;45.190;5.722;2023-04-05T00:44:44;4.13;;;1.75;;
32172;SDS011;18679;45.190;5.722;2023-04-05T00:47:45;3.78;;;1.83;;
32172;SDS011;18679;45.190;5.722;2023-04-05T00:50:46;6.45;;;2.17;;
32172;SDS011;18679;45.190;5.722;2023-04-05T00:53:49;4.15;;;1.83;;
32172;SDS011;18679;45.190;5.722;2023-04-05T00:56:51;2.67;;;1.38;;
32172;SDS011;18679;45.190;5.722;2023-04-05T00:59:52;5.70;;;2.22;;
32172;SDS011;18679;45.190;5.722;2023-04-05T01:02:59;5.03;;;2.17;;
32172;SDS011;18679;45.190;5.722;2023-04-05T01:06:08;4.63;;;1.77;;
32172;SDS011;18679;45.190;5.722;2023-04-05T01:09:39;3.20;;;1.70;;
32172;SDS011;18679;45.190;5.722;2023-04-05T01:12:52;4.40;;;1.70;;
32172;SDS011;18679;45.190;5.722;2023-04-05T01:15:54;3.25;;;1.55;;
32172;SDS011;18679;45.190;5.722;2023-04-05T01:18:55;4.10;;;1.85;;
32172;SDS011;18679;45.190;5.722;2023-04-05T01:32:39;5.07;;;2.17;;
32172;SDS011;18679;45.190;5.722;2023-04-05T01:38:51;9.45;;;1.67;;
32172;SDS011;18679;45.190;5.722;2023-04-05T01:41:58;6.53;;;2.83;;
32172;SDS011;18679;45.190;5.722;2023-04-05T01:45:00;6.70;;;1.85;;
32172;SDS011;18679;45.190;5.722;2023-04-05T01:48:01;7.05;;;2.30;;
32172;SDS011;18679;45.190;5.722;2023-04-05T01:51:02;1.92;;;1.40;;
32172;SDS011;18679;45.190;5.722;2023-04-05T01:54:02;2.63;;;1.50;;
32172;SDS011;18679;45.190;5.722;2023-04-05T01:57:04;3.13;;;1.55;;
32172;SDS011;18679;45.190;5.722;2023-04-05T02:00:05;3.17;;;1.60;;
32172;SDS011;18679;45.190;5.722;2023-04-05T02:03:13;4.22;;;1.95;;
32172;SDS011;18679;45.190;5.722;2023-04-05T02:06:13;2.10;;;1.63;;
32172;SDS011;18679;45.190;5.722;2023-04-05T02:09:15;2.17;;;1.67;;
32172;SDS011;18679;45.190;5.722;2023-04-05T02:12:18;3.35;;;1.83;;
32172;SDS011;18679;45.190;5.722;2023-04-05T02:15:19;4.20;;;1.88;;
32172;SDS011;18679;45.190;5.722;2023-04-05T02:18:20;2.97;;;1.30;;
32172;SDS011;18679;45.190;5.722;2023-04-05T02:21:21;6.13;;;2.00;;
32172;SDS011;18679;45.190;5.722;2023-04-05T02:24:23;4.40;;;1.77;;
32172;SDS011;18679;45.190;5.722;2023-04-05T02:27:24;4.95;;;1.60;;
32172;SDS011;18679;45.190;5.722;2023-04-05T02:30:27;2.30;;;1.67;;
32172;SDS011;18679;45.190;5.722;2023-04-05T02:33:28;4.40;;;1.58;;
32172;SDS011;18679;45.190;5.722;2023-04-05T02:36:29;4.20;;;1.63;;
32172;SDS011;18679;45.190;5.722;2023-04-05T02:39:29;3.67;;;1.77;;
32172;SDS011;18679;45.190;5.722;2023-04-05T02:42:30;5.65;;;1.50;;
32172;SDS011;18679;45.190;5.722;2023-04-05T02:45:31;1.88;;;1.70;;
32172;SDS011;18679;45.190;5.722;2023-04-05T02:48:33;4.22;;;1.92;;
32172;SDS011;18679;45.190;5.722;2023-04-05T02:51:35;3.83;;;1.85;;
32172;SDS011;18679;45.190;5.722;2023-04-05T02:54:40;4.07;;;2.15;;
32172;SDS011;18679;45.190;5.722;2023-04-05T02:57:42;2.72;;;2.30;;
32172;SDS011;18679;45.190;5.722;2023-04-05T03:01:00;3.03;;;1.80;;
32172;SDS011;18679;45.190;5.722;2023-04-05T03:04:06;3.45;;;1.63;;
32172;SDS011;18679;45.190;5.722;2023-04-05T03:07:07;8.95;;;2.10;;
32172;SDS011;18679;45.190;5.722;2023-04-05T03:10:12;4.10;;;1.58;;
32172;SDS011;18679;45.190;5.722;2023-04-05T03:13:20;3.63;;;1.50;;
32172;SDS011;18679;45.190;5.722;2023-04-05T03:16:22;3.80;;;1.73;;
32172;SDS011;18679;45.190;5.722;2023-04-05T03:19:23;3.55;;;1.90;;
32172;SDS011;18679;45.190;5.722;2023-04-05T03:22:30;5.30;;;2.25;;
32172;SDS011;18679;45.190;5.722;2023-04-05T03:25:35;3.88;;;2.00;;
32172;SDS011;18679;45.190;5.722;2023-04-05T03:28:37;3.22;;;1.73;;
32172;SDS011;18679;45.190;5.722;2023-04-05T03:31:43;2.88;;;1.52;;
32172;SDS011;18679;45.190;5.722;2023-04-05T03:34:46;4.28;;;1.50;;
32172;SDS011;18679;45.190;5.722;2023-04-05T03:37:49;2.70;;;1.77;;
32172;SDS011;18679;45.190;5.722;2023-04-05T03:40:51;2.53;;;1.60;;
32172;SDS011;18679;45.190;5.722;2023-04-05T03:43:51;5.00;;;2.10;;
32172;SDS011;18679;45.190;5.722;2023-04-05T03:46:56;2.65;;;1.60;;
32172;SDS011;18679;45.190;5.722;2023-04-05T03:49:57;3.17;;;1.77;;
32172;SDS011;18679;45.190;5.722;2023-04-05T03:52:58;5.00;;;2.28;;
32172;SDS011;18679;45.190;5.722;2023-04-05T03:55:59;4.97;;;1.75;;
32172;SDS011;18679;45.190;5.722;2023-04-05T03:59:16;4.53;;;2.15;;
32172;SDS011;18679;45.190;5.722;2023-04-05T04:02:17;2.17;;;1.98;;
32172;SDS011;18679;45.190;5.722;2023-04-05T04:05:18;4.93;;;1.85;;
32172;SDS011;18679;45.190;5.722;2023-04-05T04:08:24;2.88;;;1.58;;
32172;SDS011;18679;45.190;5.722;2023-04-05T04:11:25;5.68;;;2.25;;
32172;SDS011;18679;45.190;5.722;2023-04-05T04:14:26;5.25;;;2.13;;
32172;SDS011;18679;45.190;5.722;2023-04-05T04:17:39;3.17;;;2.13;;
32172;SDS011;18679;45.190;5.722;2023-04-05T04:21:03;2.60;;;1.65;;
32172;SDS011;18679;45.190;5.722;2023-04-05T04:24:31;2.80;;;1.90;;
32172;SDS011;18679;45.190;5.722;2023-04-05T04:27:55;9.93;;;2.13;;
32172;SDS011;18679;45.190;5.722;2023-04-05T04:31:11;3.72;;;2.20;;
32172;SDS011;18679;45.190;5.722;2023-04-05T04:34:42;4.80;;;1.83;;
32172;SDS011;18679;45.190;5.722;2023-04-05T04:38:04;5.30;;;2.40;;
32172;SDS011;18679;45.190;5.722;2023-04-05T04:41:26;5.65;;;2.50;;
32172;SDS011;18679;45.190;5.722;2023-04-05T04:44:36;5.95;;;2.20;;
32172;SDS011;18679;45.190;5.722;2023-04-05T04:48:03;5.28;;;2.63;;
32172;SDS011;18679;45.190;5.722;2023-04-05T04:51:23;4.35;;;1.98;;
32172;SDS011;18679;45.190;5.722;2023-04-05T04:54:24;6.03;;;2.25;;
32172;SDS011;18679;45.190;5.722;2023-04-05T04:57:25;4.90;;;2.28;;
32172;SDS011;18679;45.190;5.722;2023-04-05T05:00:27;4.40;;;2.15;;
32172;SDS011;18679;45.190;5.722;2023-04-05T05:03:28;16.85;;;2.22;;
32172;SDS011;18679;45.190;5.722;2023-04-05T05:06:29;3.90;;;2.15;;
32172;SDS011;18679;45.190;5.722;2023-04-05T05:09:30;5.07;;;2.45;;
32172;SDS011;18679;45.190;5.722;2023-04-05T05:12:32;4.18;;;2.53;;
32172;SDS011;18679;45.190;5.722;2023-04-05T05:15:33;10.55;;;2.72;;
32172;SDS011;18679;45.190;5.722;2023-04-05T05:18:34;5.07;;;2.00;;
32172;SDS011;18679;45.190;5.722;2023-04-05T05:21:35;7.50;;;2.47;;
32172;SDS011;18679;45.190;5.722;2023-04-05T05:24:36;5.40;;;2.50;;
32172;SDS011;18679;45.190;5.722;2023-04-05T05:27:37;6.07;;;2.63;;
32172;SDS011;18679;45.190;5.722;2023-04-05T05:30:38;3.58;;;1.98;;
32172;SDS011;18679;45.190;5.722;2023-04-05T05:33:39;6.68;;;2.03;;
32172;SDS011;18679;45.190;5.722;2023-04-05T05:36:40;7.07;;;2.90;;
32172;SDS011;18679;45.190;5.722;2023-04-05T05:39:41;5.20;;;3.13;;
32172;SDS011;18679;45.190;5.722;2023-04-05T05:42:43;6.55;;;2.67;;
32172;SDS011;18679;45.190;5.722;2023-04-05T05:45:44;5.90;;;2.50;;
32172;SDS011;18679;45.190;5.722;2023-04-05T05:48:45;4.22;;;2.25;;
32172;SDS011;18679;45.190;5.722;2023-04-05T05:51:46;2.85;;;1.98;;
32172;SDS011;18679;45.190;5.722;2023-04-05T05:54:47;7.82;;;2.25;;
32172;SDS011;18679;45.190;5.722;2023-04-05T05:57:48;4.10;;;2.30;;
32172;SDS011;18679;45.190;5.722;2023-04-05T06:00:49;4.80;;;2.38;;
32172;SDS011;18679;45.190;5.722;2023-04-05T06:03:50;12.30;;;2.38;;
32172;SDS011;18679;45.190;5.722;2023-04-05T06:06:51;2.25;;;1.58;;
32172;SDS011;18679;45.190;5.722;2023-04-05T06:09:53;4.13;;;2.03;;
32172;SDS011;18679;45.190;5.722;2023-04-05T06:12:54;9.27;;;2.35;;
32172;SDS011;18679;45.190;5.722;2023-04-05T06:15:55;8.15;;;2.45;;
32172;SDS011;18679;45.190;5.722;2023-04-05T06:18:56;5.15;;;2.28;;
32172;SDS011;18679;45.190;5.722;2023-04-05T06:21:57;5.03;;;2.40;;
32172;SDS011;18679;45.190;5.722;2023-04-05T06:24:59;4.63;;;1.98;;
32172;SDS011;18679;45.190;5.722;2023-04-05T06:28:03;5.65;;;2.80;;
32172;SDS011;18679;45.190;5.722;2023-04-05T06:31:05;8.75;;;2.70;;
32172;SDS011;18679;45.190;5.722;2023-04-05T06:34:06;8.30;;;2.72;;
32172;SDS011;18679;45.190;5.722;2023-04-05T06:37:07;4.97;;;2.38;;
32172;SDS011;18679;45.190;5.722;2023-04-05T06:40:08;4.75;;;2.47;;
32172;SDS011;18679;45.190;5.722;2023-04-05T06:43:09;3.38;;;2.30;;
32172;SDS011;18679;45.190;5.722;2023-04-05T06:46:10;4.93;;;2.83;;
32172;SDS011;18679;45.190;5.722;2023-04-05T06:49:11;5.93;;;2.78;;
32172;SDS011;18679;45.190;5.722;2023-04-05T06:52:12;5.70;;;2.58;;
32172;SDS011;18679;45.190;5.722;2023-04-05T06:55:13;4.20;;;2.65;;
32172;SDS011;18679;45.190;5.722;2023-04-05T06:58:14;8.13;;;2.95;;
32172;SDS011;18679;45.190;5.722;2023-04-05T07:01:15;8.50;;;2.38;;
32172;SDS011;18679;45.190;5.722;2023-04-05T07:04:16;6.25;;;2.50;;
32172;SDS011;18679;45.190;5.722;2023-04-05T07:07:17;4.80;;;2.38;;
32172;SDS011;18679;45.190;5.722;2023-04-05T07:10:18;15.07;;;3.10;;
32172;SDS011;18679;45.190;5.722;2023-04-05T07:13:20;5.18;;;2.33;;
32172;SDS011;18679;45.190;5.722;2023-04-05T07:16:21;4.80;;;2.88;;
32172;SDS011;18679;45.190;5.722;2023-04-05T07:19:22;3.97;;;2.55;;
32172;SDS011;18679;45.190;5.722;2023-04-05T07:22:23;6.80;;;3.22;;
32172;SDS011;18679;45.190;5.722;2023-04-05T07:25:24;10.02;;;3.00;;
32172;SDS011;18679;45.190;5.722;2023-04-05T07:28:25;6.63;;;2.72;;
32172;SDS011;18679;45.190;5.722;2023-04-05T07:31:26;4.75;;;2.75;;
32172;SDS011;18679;45.190;5.722;2023-04-05T07:34:27;9.63;;;3.00;;
32172;SDS011;18679;45.190;5.722;2023-04-05T07:37:28;4.25;;;2.90;;
32172;SDS011;18679;45.190;5.722;2023-04-05T07:40:29;7.82;;;2.97;;
32172;SDS011;18679;45.190;5.722;2023-04-05T07:43:30;8.95;;;3.33;;
32172;SDS011;18679;45.190;5.722;2023-04-05T07:46:31;10.23;;;3.05;;
32172;SDS011;18679;45.190;5.722;2023-04-05T07:49:32;3.90;;;2.60;;
32172;SDS011;18679;45.190;5.722;2023-04-05T07:52:33;6.75;;;3.33;;
32172;SDS011;18679;45.190;5.722;2023-04-05T07:55:36;9.32;;;3.22;;
32172;SDS011;18679;45.190;5.722;2023-04-05T07:58:37;10.48;;;3.63;;
32172;SDS011;18679;45.190;5.722;2023-04-05T08:01:40;5.63;;;3.65;;
32172;SDS011;18679;45.190;5.722;2023-04-05T08:04:41;7.57;;;3.00;;
32172;SDS011;18679;45.190;5.722;2023-04-05T08:07:42;5.85;;;3.20;;
32172;SDS011;18679;45.190;5.722;2023-04-05T08:10:43;10.18;;;3.72;;
32172;SDS011;18679;45.190;5.722;2023-04-05T08:13:44;6.82;;;3.65;;
32172;SDS011;18679;45.190;5.722;2023-04-05T08:16:46;7.40;;;3.50;;
32172;SDS011;18679;45.190;5.722;2023-04-05T08:19:46;9.25;;;3.63;;
32172;SDS011;18679;45.190;5.722;2023-04-05T08:22:48;7.85;;;3.92;;
32172;SDS011;18679;45.190;5.722;2023-04-05T08:25:49;9.02;;;3.38;;
32172;SDS011;18679;45.190;5.722;2023-04-05T08:28:50;6.90;;;3.20;;
32172;SDS011;18679;45.190;5.722;2023-04-05T08:31:51;7.40;;;3.65;;
32172;SDS011;18679;45.190;5.722;2023-04-05T08:34:55;7.45;;;3.17;;
32172;SDS011;18679;45.190;5.722;2023-04-05T08:37:56;6.13;;;3.00;;
32172;SDS011;18679;45.190;5.722;2023-04-05T08:40:56;4.25;;;3.10;;
32172;SDS011;18679;45.190;5.722;2023-04-05T08:44:16;7.22;;;3.30;;
32172;SDS011;18679;45.190;5.722;2023-04-05T08:47:18;6.68;;;3.40;;
32172;SDS011;18679;45.190;5.722;2023-04-05T08:50:22;8.52;;;3.58;;
32172;SDS011;18679;45.190;5.722;2023-04-05T08:53:23;4.82;;;3.13;;
32172;SDS011;18679;45.190;5.722;2023-04-05T08:56:25;8.18;;;3.63;;
32172;SDS011;18679;45.190;5.722;2023-04-05T08:59:28;7.35;;;3.80;;
32172;SDS011;18679;45.190;5.722;2023-04-05T09:02:31;6.38;;;3.22;;
32172;SDS011;18679;45.190;5.722;2023-04-05T09:05:32;9.00;;;3.75;;
32172;SDS011;18679;45.190;5.722;2023-04-05T09:08:37;6.32;;;3.70;;
32172;SDS011;18679;45.190;5.722;2023-04-05T09:11:38;9.45;;;4.30;;
32172;SDS011;18679;45.190;5.722;2023-04-05T09:14:39;8.48;;;3.95;;
32172;SDS011;18679;45.190;5.722;2023-04-05T09:17:41;6.55;;;3.50;;
32172;SDS011;18679;45.190;5.722;2023-04-05T09:20:43;7.55;;;3.85;;
32172;SDS011;18679;45.190;5.722;2023-04-05T09:23:49;8.80;;;3.90;;
32172;SDS011;18679;45.190;5.722;2023-04-05T09:27:02;6.10;;;4.07;;
32172;SDS011;18679;45.190;5.722;2023-04-05T09:30:07;4.57;;;2.97;;
32172;SDS011;18679;45.190;5.722;2023-04-05T09:33:21;9.73;;;3.35;;
32172;SDS011;18679;45.190;5.722;2023-04-05T09:36:24;9.93;;;4.20;;
32172;SDS011;18679;45.190;5.722;2023-04-05T09:39:29;7.53;;;3.75;;
32172;SDS011;18679;45.190;5.722;2023-04-05T09:42:41;5.60;;;3.28;;
32172;SDS011;18679;45.190;5.722;2023-04-05T09:45:46;8.05;;;3.45;;
32172;SDS011;18679;45.190;5.722;2023-04-05T09:48:47;5.72;;;3.38;;
32172;SDS011;18679;45.190;5.722;2023-04-05T09:51:49;13.45;;;3.55;;
32172;SDS011;18679;45.190;5.722;2023-04-05T09:54:51;8.25;;;3.40;;
32172;SDS011;18679;45.190;5.722;2023-04-05T09:57:56;6.43;;;3.03;;
32172;SDS011;18679;45.190;5.722;2023-04-05T10:00:57;5.45;;;3.08;;
32172;SDS011;18679;45.190;5.722;2023-04-05T10:03:58;3.90;;;2.95;;
32172;SDS011;18679;45.190;5.722;2023-04-05T10:06:59;4.55;;;3.22;;
32172;SDS011;18679;45.190;5.722;2023-04-05T10:10:00;6.50;;;3.05;;
32172;SDS011;18679;45.190;5.722;2023-04-05T10:13:03;5.22;;;3.03;;
32172;SDS011;18679;45.190;5.722;2023-04-05T10:16:05;10.55;;;3.63;;
32172;SDS011;18679;45.190;5.722;2023-04-05T10:19:19;5.32;;;3.28;;
32172;SDS011;18679;45.190;5.722;2023-04-05T10:22:28;5.13;;;3.35;;
32172;SDS011;18679;45.190;5.722;2023-04-05T10:28:55;5.75;;;3.10;;
32172;SDS011;18679;45.190;5.722;2023-04-05T10:32:03;7.20;;;3.25;;
32172;SDS011;18679;45.190;5.722;2023-04-05T10:38:52;9.13;;;3.88;;
32172;SDS011;18679;45.190;5.722;2023-04-05T10:42:27;14.32;;;4.85;;
32172;SDS011;18679;45.190;5.722;2023-04-05T10:45:39;11.60;;;3.88;;
32172;SDS011;18679;45.190;5.722;2023-04-05T10:48:47;6.30;;;3.55;;
32172;SDS011;18679;45.190;5.722;2023-04-05T10:51:51;5.13;;;3.15;;
32172;SDS011;18679;45.190;5.722;2023-04-05T10:54:52;5.60;;;3.45;;
32172;SDS011;18679;45.190;5.722;2023-04-05T10:57:56;5.30;;;3.58;;
32172;SDS011;18679;45.190;5.722;2023-04-05T11:00:58;4.78;;;2.90;;
32172;SDS011;18679;45.190;5.722;2023-04-05T11:04:15;6.25;;;3.03;;
32172;SDS011;18679;45.190;5.722;2023-04-05T11:07:17;6.03;;;3.05;;
32172;SDS011;18679;45.190;5.722;2023-04-05T11:10:18;5.05;;;2.97;;
32172;SDS011;18679;45.190;5.722;2023-04-05T11:13:19;4.60;;;3.33;;
32172;SDS011;18679;45.190;5.722;2023-04-05T11:16:21;5.68;;;3.13;;
32172;SDS011;18679;45.190;5.722;2023-04-05T11:22:42;4.30;;;2.58;;
32172;SDS011;18679;45.190;5.722;2023-04-05T11:26:03;5.45;;;2.92;;
32172;SDS011;18679;45.190;5.722;2023-04-05T11:29:05;5.32;;;2.97;;
32172;SDS011;18679;45.190;5.722;2023-04-05T11:32:10;6.82;;;2.70;;
32172;SDS011;18679;45.190;5.722;2023-04-05T11:35:15;4.70;;;2.95;;
32172;SDS011;18679;45.190;5.722;2023-04-05T11:38:22;7.30;;;2.97;;
32172;SDS011;18679;45.190;5.722;2023-04-05T11:41:23;4.10;;;2.47;;
32172;SDS011;18679;45.190;5.722;2023-04-05T11:47:45;4.35;;;2.92;;
32172;SDS011;18679;45.190;5.722;2023-04-05T11:50:46;4.60;;;2.85;;
32172;SDS011;18679;45.190;5.722;2023-04-05T11:53:50;4.38;;;2.53;;
32172;SDS011;18679;45.190;5.722;2023-04-05T11:56:50;5.47;;;3.10;;
32172;SDS011;18679;45.190;5.722;2023-04-05T11:59:52;5.40;;;3.22;;
32172;SDS011;18679;45.190;5.722;2023-04-05T12:02:56;6.53;;;3.28;;
32172;SDS011;18679;45.190;5.722;2023-04-05T12:05:57;6.28;;;3.30;;
32172;SDS011;18679;45.190;5.722;2023-04-05T12:08:59;4.45;;;2.60;;
32172;SDS011;18679;45.190;5.722;2023-04-05T12:12:00;4.53;;;2.78;;
32172;SDS011;18679;45.190;5.722;2023-04-05T12:15:01;9.30;;;3.80;;
32172;SDS011;18679;45.190;5.722;2023-04-05T12:18:03;7.90;;;2.85;;
32172;SDS011;18679;45.190;5.722;2023-04-05T12:21:05;7.88;;;3.30;;
32172;SDS011;18679;45.190;5.722;2023-04-05T12:24:08;4.85;;;2.88;;
32172;SDS011;18679;45.190;5.722;2023-04-05T12:27:09;16.20;;;3.03;;
32172;SDS011;18679;45.190;5.722;2023-04-05T12:30:13;6.95;;;3.45;;
32172;SDS011;18679;45.190;5.722;2023-04-05T12:33:39;5.68;;;3.17;;
32172;SDS011;18679;45.190;5.722;2023-04-05T12:36:44;5.10;;;3.03;;
32172;SDS011;18679;45.190;5.722;2023-04-05T12:39:45;7.35;;;2.97;;
32172;SDS011;18679;45.190;5.722;2023-04-05T12:42:46;13.05;;;3.13;;
32172;SDS011;18679;45.190;5.722;2023-04-05T12:45:47;6.10;;;3.10;;
32172;SDS011;18679;45.190;5.722;2023-04-05T12:48:49;7.93;;;3.00;;
32172;SDS011;18679;45.190;5.722;2023-04-05T12:51:52;4.15;;;2.88;;
32172;SDS011;18679;45.190;5.722;2023-04-05T12:54:53;9.88;;;4.35;;
32172;SDS011;18679;45.190;5.722;2023-04-05T12:57:55;10.38;;;3.72;;
32172;SDS011;18679;45.190;5.722;2023-04-05T13:01:00;5.78;;;3.22;;
32172;SDS011;18679;45.190;5.722;2023-04-05T13:04:02;5.78;;;3.10;;
32172;SDS011;18679;45.190;5.722;2023-04-05T13:07:06;5.53;;;3.42;;
32172;SDS011;18679;45.190;5.722;2023-04-05T13:10:07;5.47;;;2.95;;
32172;SDS011;18679;45.190;5.722;2023-04-05T13:13:08;3.90;;;2.63;;
32172;SDS011;18679;45.190;5.722;2023-04-05T13:16:09;7.20;;;3.60;;
32172;SDS011;18679;45.190;5.722;2023-04-05T13:19:10;7.13;;;3.47;;
32172;SDS011;18679;45.190;5.722;2023-04-05T13:22:11;5.40;;;3.50;;
32172;SDS011;18679;45.190;5.722;2023-04-05T13:25:12;6.53;;;3.00;;
32172;SDS011;18679;45.190;5.722;2023-04-05T13:28:14;4.90;;;3.10;;
32172;SDS011;18679;45.190;5.722;2023-04-05T13:31:15;3.97;;;2.50;;
32172;SDS011;18679;45.190;5.722;2023-04-05T13:34:16;7.43;;;3.08;;
32172;SDS011;18679;45.190;5.722;2023-04-05T13:37:16;6.13;;;3.05;;
32172;SDS011;18679;45.190;5.722;2023-04-05T13:40:17;5.25;;;2.85;;
32172;SDS011;18679;45.190;5.722;2023-04-05T13:43:18;8.07;;;3.00;;
32172;SDS011;18679;45.190;5.722;2023-04-05T13:46:19;7.57;;;3.13;;
32172;SDS011;18679;45.190;5.722;2023-04-05T13:49:20;6.03;;;2.80;;
32172;SDS011;18679;45.190;5.722;2023-04-05T13:52:21;4.95;;;2.70;;
32172;SDS011;18679;45.190;5.722;2023-04-05T13:55:22;5.63;;;3.00;;
32172;SDS011;18679;45.190;5.722;2023-04-05T13:58:23;8.95;;;3.28;;
32172;SDS011;18679;45.190;5.722;2023-04-05T14:01:24;5.72;;;2.90;;
32172;SDS011;18679;45.190;5.722;2023-04-05T14:04:25;4.50;;;2.80;;
32172;SDS011;18679;45.190;5.722;2023-04-05T14:07:28;7.40;;;2.95;;
32172;SDS011;18679;45.190;5.722;2023-04-05T14:10:30;13.90;;;2.38;;
32172;SDS011;18679;45.190;5.722;2023-04-05T14:13:31;5.63;;;2.72;;
32172;SDS011;18679;45.190;5.722;2023-04-05T14:16:32;7.05;;;2.88;;
32172;SDS011;18679;45.190;5.722;2023-04-05T14:19:33;9.68;;;3.05;;
32172;SDS011;18679;45.190;5.722;2023-04-05T14:22:34;7.70;;;3.10;;
32172;SDS011;18679;45.190;5.722;2023-04-05T14:25:35;4.65;;;2.22;;
32172;SDS011;18679;45.190;5.722;2023-04-05T14:28:39;12.57;;;2.83;;
32172;SDS011;18679;45.190;5.722;2023-04-05T14:31:40;5.72;;;2.40;;
32172;SDS011;18679;45.190;5.722;2023-04-05T14:34:41;4.43;;;2.65;;
32172;SDS011;18679;45.190;5.722;2023-04-05T14:37:42;4.32;;;2.60;;
32172;SDS011;18679;45.190;5.722;2023-04-05T14:40:42;5.75;;;2.30;;
32172;SDS011;18679;45.190;5.722;2023-04-05T14:43:43;8.40;;;2.83;;
32172;SDS011;18679;45.190;5.722;2023-04-05T14:46:45;10.70;;;2.63;;
32172;SDS011;18679;45.190;5.722;2023-04-05T14:49:46;8.43;;;3.13;;
32172;SDS011;18679;45.190;5.722;2023-04-05T14:52:46;3.20;;;2.05;;
32172;SDS011;18679;45.190;5.722;2023-04-05T14:55:49;3.85;;;2.30;;
32172;SDS011;18679;45.190;5.722;2023-04-05T14:58:50;6.85;;;2.63;;
32172;SDS011;18679;45.190;5.722;2023-04-05T15:01:51;14.68;;;6.10;;
32172;SDS011;18679;45.190;5.722;2023-04-05T15:04:52;4.40;;;2.60;;
32172;SDS011;18679;45.190;5.722;2023-04-05T15:07:53;10.88;;;2.58;;
32172;SDS011;18679;45.190;5.722;2023-04-05T15:10:54;6.05;;;2.80;;
32172;SDS011;18679;45.190;5.722;2023-04-05T15:13:55;5.10;;;2.05;;
32172;SDS011;18679;45.190;5.722;2023-04-05T15:16:56;4.38;;;2.60;;
32172;SDS011;18679;45.190;5.722;2023-04-05T15:19:57;5.05;;;2.75;;
32172;SDS011;18679;45.190;5.722;2023-04-05T15:22:58;8.88;;;2.42;;
32172;SDS011;18679;45.190;5.722;2023-04-05T15:25:59;3.40;;;2.15;;
32172;SDS011;18679;45.190;5.722;2023-04-05T15:29:00;4.97;;;2.55;;
32172;SDS011;18679;45.190;5.722;2023-04-05T15:32:01;3.30;;;1.92;;
32172;SDS011;18679;45.190;5.722;2023-04-05T15:35:02;4.55;;;2.13;;
32172;SDS011;18679;45.190;5.722;2023-04-05T15:38:04;8.02;;;2.40;;
32172;SDS011;18679;45.190;5.722;2023-04-05T15:41:06;5.65;;;2.35;;
32172;SDS011;18679;45.190;5.722;2023-04-05T15:44:07;3.50;;;2.22;;
32172;SDS011;18679;45.190;5.722;2023-04-05T15:47:08;4.07;;;2.65;;
32172;SDS011;18679;45.190;5.722;2023-04-05T15:50:10;6.32;;;2.65;;
32172;SDS011;18679;45.190;5.722;2023-04-05T15:53:11;4.70;;;2.40;;
32172;SDS011;18679;45.190;5.722;2023-04-05T15:56:12;5.25;;;2.10;;
32172;SDS011;18679;45.190;5.722;2023-04-05T15:59:13;5.55;;;2.58;;
32172;SDS011;18679;45.190;5.722;2023-04-05T16:02:13;9.88;;;2.78;;
32172;SDS011;18679;45.190;5.722;2023-04-05T16:05:14;8.30;;;2.67;;
32172;SDS011;18679;45.190;5.722;2023-04-05T16:08:15;8.88;;;2.58;;
32172;SDS011;18679;45.190;5.722;2023-04-05T16:11:16;6.00;;;2.30;;
32172;SDS011;18679;45.190;5.722;2023-04-05T16:14:17;3.63;;;2.33;;
32172;SDS011;18679;45.190;5.722;2023-04-05T16:17:18;6.95;;;2.75;;
32172;SDS011;18679;45.190;5.722;2023-04-05T16:20:19;6.00;;;2.55;;
32172;SDS011;18679;45.190;5.722;2023-04-05T16:23:21;5.05;;;2.55;;
32172;SDS011;18679;45.190;5.722;2023-04-05T16:26:22;3.70;;;2.38;;
32172;SDS011;18679;45.190;5.722;2023-04-05T16:29:23;5.93;;;2.78;;
32172;SDS011;18679;45.190;5.722;2023-04-05T16:32:24;9.25;;;3.00;;
32172;SDS011;18679;45.190;5.722;2023-04-05T16:35:25;6.38;;;2.60;;
32172;SDS011;18679;45.190;5.722;2023-04-05T16:38:26;5.50;;;2.75;;
32172;SDS011;18679;45.190;5.722;2023-04-05T16:41:27;5.35;;;2.60;;
32172;SDS011;18679;45.190;5.722;2023-04-05T16:44:28;5.35;;;2.20;;
32172;SDS011;18679;45.190;5.722;2023-04-05T16:47:28;4.60;;;2.35;;
32172;SDS011;18679;45.190;5.722;2023-04-05T16:50:30;6.05;;;2.70;;
32172;SDS011;18679;45.190;5.722;2023-04-05T16:53:32;8.05;;;2.70;;
32172;SDS011;18679;45.190;5.722;2023-04-05T16:56:32;13.85;;;2.33;;
32172;SDS011;18679;45.190;5.722;2023-04-05T16:59:33;4.53;;;2.38;;
32172;SDS011;18679;45.190;5.722;2023-04-05T17:02:35;6.28;;;2.72;;
32172;SDS011;18679;45.190;5.722;2023-04-05T17:05:35;5.47;;;2.47;;
32172;SDS011;18679;45.190;5.722;2023-04-05T17:08:37;4.93;;;2.42;;
32172;SDS011;18679;45.190;5.722;2023-04-05T17:11:38;5.85;;;2.67;;
32172;SDS011;18679;45.190;5.722;2023-04-05T17:14:39;4.50;;;2.55;;
32172;SDS011;18679;45.190;5.722;2023-04-05T17:17:40;6.43;;;2.42;;
32172;SDS011;18679;45.190;5.722;2023-04-05T17:20:41;10.98;;;2.35;;
32172;SDS011;18679;45.190;5.722;2023-04-05T17:23:42;4.85;;;2.50;;
32172;SDS011;18679;45.190;5.722;2023-04-05T17:26:43;4.07;;;2.70;;
32172;SDS011;18679;45.190;5.722;2023-04-05T17:29:44;5.70;;;2.88;;
32172;SDS011;18679;45.190;5.722;2023-04-05T17:32:45;6.70;;;3.20;;
32172;SDS011;18679;45.190;5.722;2023-04-05T17:35:46;11.75;;;2.88;;
32172;SDS011;18679;45.190;5.722;2023-04-05T17:38:48;11.18;;;3.00;;
32172;SDS011;18679;45.190;5.722;2023-04-05T17:41:49;4.13;;;2.75;;
32172;SDS011;18679;45.190;5.722;2023-04-05T17:44:50;5.72;;;2.67;;
32172;SDS011;18679;45.190;5.722;2023-04-05T17:47:51;7.07;;;2.92;;
32172;SDS011;18679;45.190;5.722;2023-04-05T17:50:52;5.70;;;2.47;;
32172;SDS011;18679;45.190;5.722;2023-04-05T17:53:53;4.93;;;2.80;;
32172;SDS011;18679;45.190;5.722;2023-04-05T17:56:56;10.27;;;3.05;;
32172;SDS011;18679;45.190;5.722;2023-04-05T17:59:57;4.97;;;2.88;;
32172;SDS011;18679;45.190;5.722;2023-04-05T18:02:58;4.80;;;2.33;;
32172;SDS011;18679;45.190;5.722;2023-04-05T18:05:59;6.85;;;2.95;;
32172;SDS011;18679;45.190;5.722;2023-04-05T18:09:00;3.95;;;2.50;;
32172;SDS011;18679;45.190;5.722;2023-04-05T18:12:02;3.45;;;2.40;;
32172;SDS011;18679;45.190;5.722;2023-04-05T18:15:03;11.07;;;2.97;;
32172;SDS011;18679;45.190;5.722;2023-04-05T18:18:05;11.65;;;2.97;;
32172;SDS011;18679;45.190;5.722;2023-04-05T18:21:06;8.77;;;2.63;;
32172;SDS011;18679;45.190;5.722;2023-04-05T18:24:07;4.97;;;2.55;;
32172;SDS011;18679;45.190;5.722;2023-04-05T18:27:09;7.85;;;2.50;;
32172;SDS011;18679;45.190;5.722;2023-04-05T18:30:11;6.72;;;2.42;;
32172;SDS011;18679;45.190;5.722;2023-04-05T18:33:13;5.32;;;2.60;;
32172;SDS011;18679;45.190;5.722;2023-04-05T18:36:14;4.13;;;2.03;;
32172;SDS011;18679;45.190;5.722;2023-04-05T18:39:15;3.97;;;2.50;;
32172;SDS011;18679;45.190;5.722;2023-04-05T18:42:16;9.05;;;2.63;;
32172;SDS011;18679;45.190;5.722;2023-04-05T18:45:17;9.35;;;2.47;;
32172;SDS011;18679;45.190;5.722;2023-04-05T18:48:18;3.28;;;2.10;;